sensor_id;sensor_type;location;lat;lon;timestamp;P1;durP1;ratioP1;P2;durP2;ratioP2
14599;SDS011;7386;45.586;12.854;2022-12-11T00:00:38;7.87;;;6.37;;
14599;SDS011;7386;45.586;12.854;2022-12-11T00:03:06;8.10;;;5.97;;
14599;SDS011;7386;45.586;12.854;2022-12-11T00:05:43;9.10;;;6.43;;
14599;SDS011;7386;45.586;12.854;2022-12-11T00:08:11;8.73;;;6.83;;
14599;SDS011;7386;45.586;12.854;2022-12-11T00:10:46;8.40;;;7.13;;
14599;SDS011;7386;45.586;12.854;2022-12-11T00:13:14;9.17;;;7.70;;
14599;SDS011;7386;45.586;12.854;2022-12-11T00:15:43;10.37;;;8.77;;
14599;SDS011;7386;45.586;12.854;2022-12-11T00:18:11;11.13;;;9.37;;
14599;SDS011;7386;45.586;12.854;2022-12-11T00:20:40;11.03;;;8.60;;
14599;SDS011;7386;45.586;12.854;2022-12-11T00:23:10;10.77;;;8.80;;
14599;SDS011;7386;45.586;12.854;2022-12-11T00:25:42;9.73;;;8.67;;
14599;SDS011;7386;45.586;12.854;2022-12-11T00:28:11;9.17;;;8.10;;
14599;SDS011;7386;45.586;12.854;2022-12-11T00:30:40;13.27;;;9.50;;
14599;SDS011;7386;45.586;12.854;2022-12-11T00:33:09;10.90;;;9.03;;
14599;SDS011;7386;45.586;12.854;2022-12-11T00:35:38;12.83;;;10.00;;
14599;SDS011;7386;45.586;12.854;2022-12-11T00:38:06;11.77;;;9.27;;
14599;SDS011;7386;45.586;12.854;2022-12-11T00:40:36;14.43;;;9.40;;
14599;SDS011;7386;45.586;12.854;2022-12-11T00:43:05;11.50;;;9.50;;
14599;SDS011;7386;45.586;12.854;2022-12-11T00:45:34;11.33;;;9.10;;
14599;SDS011;7386;45.586;12.854;2022-12-11T00:48:03;11.33;;;8.67;;
14599;SDS011;7386;45.586;12.854;2022-12-11T00:50:32;10.43;;;8.63;;
14599;SDS011;7386;45.586;12.854;2022-12-11T00:53:00;10.43;;;8.87;;
14599;SDS011;7386;45.586;12.854;2022-12-11T00:55:29;10.23;;;8.67;;
14599;SDS011;7386;45.586;12.854;2022-12-11T00:57:59;10.50;;;8.87;;
14599;SDS011;7386;45.586;12.854;2022-12-11T01:00:28;9.90;;;8.43;;
14599;SDS011;7386;45.586;12.854;2022-12-11T01:02:56;11.43;;;9.60;;
14599;SDS011;7386;45.586;12.854;2022-12-11T01:05:25;10.27;;;9.17;;
14599;SDS011;7386;45.586;12.854;2022-12-11T01:07:54;11.37;;;9.80;;
14599;SDS011;7386;45.586;12.854;2022-12-11T01:10:22;12.07;;;10.03;;
14599;SDS011;7386;45.586;12.854;2022-12-11T01:12:50;11.57;;;9.80;;
14599;SDS011;7386;45.586;12.854;2022-12-11T01:15:21;11.93;;;10.00;;
14599;SDS011;7386;45.586;12.854;2022-12-11T01:17:49;12.60;;;10.10;;
14599;SDS011;7386;45.586;12.854;2022-12-11T01:20:18;12.23;;;10.27;;
14599;SDS011;7386;45.586;12.854;2022-12-11T01:22:47;12.77;;;10.20;;
14599;SDS011;7386;45.586;12.854;2022-12-11T01:25:15;13.00;;;10.70;;
14599;SDS011;7386;45.586;12.854;2022-12-11T01:27:44;11.40;;;10.13;;
14599;SDS011;7386;45.586;12.854;2022-12-11T01:30:12;11.87;;;10.20;;
14599;SDS011;7386;45.586;12.854;2022-12-11T01:32:43;11.50;;;9.80;;
14599;SDS011;7386;45.586;12.854;2022-12-11T01:35:11;11.30;;;9.63;;
14599;SDS011;7386;45.586;12.854;2022-12-11T01:37:40;11.13;;;9.73;;
14599;SDS011;7386;45.586;12.854;2022-12-11T01:40:10;10.60;;;9.50;;
14599;SDS011;7386;45.586;12.854;2022-12-11T01:42:39;11.40;;;9.53;;
14599;SDS011;7386;45.586;12.854;2022-12-11T01:47:56;9.73;;;8.67;;
14599;SDS011;7386;45.586;12.854;2022-12-11T01:50:26;9.60;;;8.50;;
14599;SDS011;7386;45.586;12.854;2022-12-11T01:52:54;9.63;;;8.53;;
14599;SDS011;7386;45.586;12.854;2022-12-11T01:55:23;10.57;;;8.83;;
14599;SDS011;7386;45.586;12.854;2022-12-11T01:57:51;10.33;;;7.80;;
14599;SDS011;7386;45.586;12.854;2022-12-11T02:00:20;9.17;;;7.77;;
14599;SDS011;7386;45.586;12.854;2022-12-11T02:02:49;8.97;;;7.53;;
14599;SDS011;7386;45.586;12.854;2022-12-11T02:05:19;9.13;;;7.80;;
14599;SDS011;7386;45.586;12.854;2022-12-11T02:07:49;10.00;;;7.33;;
14599;SDS011;7386;45.586;12.854;2022-12-11T02:10:19;8.87;;;6.67;;
14599;SDS011;7386;45.586;12.854;2022-12-11T02:12:51;8.73;;;6.60;;
14599;SDS011;7386;45.586;12.854;2022-12-11T02:15:24;9.23;;;6.73;;
14599;SDS011;7386;45.586;12.854;2022-12-11T02:17:56;7.17;;;6.23;;
14599;SDS011;7386;45.586;12.854;2022-12-11T02:20:29;7.33;;;6.37;;
14599;SDS011;7386;45.586;12.854;2022-12-11T02:23:06;7.07;;;6.10;;
14599;SDS011;7386;45.586;12.854;2022-12-11T02:25:38;6.87;;;5.57;;
14599;SDS011;7386;45.586;12.854;2022-12-11T02:28:13;6.00;;;5.27;;
14599;SDS011;7386;45.586;12.854;2022-12-11T02:30:44;5.27;;;4.67;;
14599;SDS011;7386;45.586;12.854;2022-12-11T02:33:14;4.93;;;4.37;;
14599;SDS011;7386;45.586;12.854;2022-12-11T02:35:43;5.10;;;4.50;;
14599;SDS011;7386;45.586;12.854;2022-12-11T02:38:14;4.80;;;3.67;;
14599;SDS011;7386;45.586;12.854;2022-12-11T02:40:43;3.90;;;3.30;;
14599;SDS011;7386;45.586;12.854;2022-12-11T02:43:14;4.33;;;3.50;;
14599;SDS011;7386;45.586;12.854;2022-12-11T02:45:43;3.47;;;3.17;;
14599;SDS011;7386;45.586;12.854;2022-12-11T02:48:13;5.63;;;3.50;;
14599;SDS011;7386;45.586;12.854;2022-12-11T02:50:43;3.67;;;3.27;;
14599;SDS011;7386;45.586;12.854;2022-12-11T02:53:14;6.50;;;3.70;;
14599;SDS011;7386;45.586;12.854;2022-12-11T02:55:44;4.20;;;3.40;;
14599;SDS011;7386;45.586;12.854;2022-12-11T02:58:15;3.93;;;3.47;;
14599;SDS011;7386;45.586;12.854;2022-12-11T03:00:45;4.50;;;3.60;;
14599;SDS011;7386;45.586;12.854;2022-12-11T03:03:13;4.37;;;3.67;;
14599;SDS011;7386;45.586;12.854;2022-12-11T03:05:42;3.90;;;3.47;;
14599;SDS011;7386;45.586;12.854;2022-12-11T03:08:12;4.03;;;3.60;;
14599;SDS011;7386;45.586;12.854;2022-12-11T03:10:42;3.93;;;3.50;;
14599;SDS011;7386;45.586;12.854;2022-12-11T03:13:11;4.53;;;3.60;;
14599;SDS011;7386;45.586;12.854;2022-12-11T03:15:43;4.63;;;3.93;;
14599;SDS011;7386;45.586;12.854;2022-12-11T03:18:17;4.63;;;3.67;;
14599;SDS011;7386;45.586;12.854;2022-12-11T03:20:49;5.10;;;3.90;;
14599;SDS011;7386;45.586;12.854;2022-12-11T03:23:21;4.50;;;4.00;;
14599;SDS011;7386;45.586;12.854;2022-12-11T03:25:52;4.80;;;3.97;;
14599;SDS011;7386;45.586;12.854;2022-12-11T03:28:23;4.87;;;4.10;;
14599;SDS011;7386;45.586;12.854;2022-12-11T03:30:54;4.63;;;3.90;;
14599;SDS011;7386;45.586;12.854;2022-12-11T03:33:24;4.73;;;3.90;;
14599;SDS011;7386;45.586;12.854;2022-12-11T03:35:54;5.20;;;4.30;;
14599;SDS011;7386;45.586;12.854;2022-12-11T03:38:24;6.70;;;5.37;;
14599;SDS011;7386;45.586;12.854;2022-12-11T03:40:53;7.33;;;5.97;;
14599;SDS011;7386;45.586;12.854;2022-12-11T03:43:23;7.33;;;6.13;;
14599;SDS011;7386;45.586;12.854;2022-12-11T03:45:54;7.40;;;6.60;;
14599;SDS011;7386;45.586;12.854;2022-12-11T03:48:24;7.93;;;6.97;;
14599;SDS011;7386;45.586;12.854;2022-12-11T03:50:54;7.97;;;6.83;;
14599;SDS011;7386;45.586;12.854;2022-12-11T03:53:23;9.07;;;6.97;;
14599;SDS011;7386;45.586;12.854;2022-12-11T03:55:53;9.10;;;7.60;;
14599;SDS011;7386;45.586;12.854;2022-12-11T03:58:23;9.63;;;7.50;;
14599;SDS011;7386;45.586;12.854;2022-12-11T04:00:51;10.20;;;8.40;;
14599;SDS011;7386;45.586;12.854;2022-12-11T04:03:21;10.00;;;8.83;;
14599;SDS011;7386;45.586;12.854;2022-12-11T04:05:51;10.20;;;8.73;;
14599;SDS011;7386;45.586;12.854;2022-12-11T04:08:20;10.67;;;9.53;;
14599;SDS011;7386;45.586;12.854;2022-12-11T04:10:49;10.40;;;8.97;;
14599;SDS011;7386;45.586;12.854;2022-12-11T04:13:38;11.20;;;10.00;;
14599;SDS011;7386;45.586;12.854;2022-12-11T04:16:07;11.20;;;9.63;;
14599;SDS011;7386;45.586;12.854;2022-12-11T04:18:36;10.70;;;9.47;;
14599;SDS011;7386;45.586;12.854;2022-12-11T04:21:22;11.73;;;9.90;;
14599;SDS011;7386;45.586;12.854;2022-12-11T04:24:08;11.20;;;10.00;;
14599;SDS011;7386;45.586;12.854;2022-12-11T04:26:43;11.70;;;10.50;;
14599;SDS011;7386;45.586;12.854;2022-12-11T04:29:11;11.40;;;9.80;;
14599;SDS011;7386;45.586;12.854;2022-12-11T04:31:40;11.97;;;9.60;;
14599;SDS011;7386;45.586;12.854;2022-12-11T04:34:10;10.67;;;9.10;;
14599;SDS011;7386;45.586;12.854;2022-12-11T04:36:38;10.23;;;9.03;;
14599;SDS011;7386;45.586;12.854;2022-12-11T04:39:07;9.60;;;8.60;;
14599;SDS011;7386;45.586;12.854;2022-12-11T04:41:35;10.80;;;8.60;;
14599;SDS011;7386;45.586;12.854;2022-12-11T04:44:04;8.83;;;7.80;;
14599;SDS011;7386;45.586;12.854;2022-12-11T04:46:32;9.03;;;7.23;;
14599;SDS011;7386;45.586;12.854;2022-12-11T04:49:01;7.57;;;6.37;;
14599;SDS011;7386;45.586;12.854;2022-12-11T04:51:31;7.47;;;6.07;;
14599;SDS011;7386;45.586;12.854;2022-12-11T04:54:00;6.40;;;5.37;;
14599;SDS011;7386;45.586;12.854;2022-12-11T04:56:28;6.23;;;5.10;;
14599;SDS011;7386;45.586;12.854;2022-12-11T04:58:56;5.70;;;4.90;;
14599;SDS011;7386;45.586;12.854;2022-12-11T05:01:25;6.00;;;4.37;;
14599;SDS011;7386;45.586;12.854;2022-12-11T05:03:53;4.30;;;3.90;;
14599;SDS011;7386;45.586;12.854;2022-12-11T05:06:22;5.07;;;3.93;;
14599;SDS011;7386;45.586;12.854;2022-12-11T05:08:51;3.93;;;3.53;;
14599;SDS011;7386;45.586;12.854;2022-12-11T05:11:20;3.43;;;3.13;;
14599;SDS011;7386;45.586;12.854;2022-12-11T05:13:48;3.20;;;2.90;;
14599;SDS011;7386;45.586;12.854;2022-12-11T05:16:17;4.33;;;2.63;;
14599;SDS011;7386;45.586;12.854;2022-12-11T05:18:45;4.23;;;2.73;;
14599;SDS011;7386;45.586;12.854;2022-12-11T05:21:14;4.13;;;2.07;;
14599;SDS011;7386;45.586;12.854;2022-12-11T05:23:42;2.80;;;2.00;;
14599;SDS011;7386;45.586;12.854;2022-12-11T05:26:13;3.70;;;2.27;;
14599;SDS011;7386;45.586;12.854;2022-12-11T05:28:43;8.23;;;2.33;;
14599;SDS011;7386;45.586;12.854;2022-12-11T05:31:13;4.53;;;2.27;;
14599;SDS011;7386;45.586;12.854;2022-12-11T05:33:44;4.27;;;2.30;;
14599;SDS011;7386;45.586;12.854;2022-12-11T05:36:14;4.50;;;2.17;;
14599;SDS011;7386;45.586;12.854;2022-12-11T05:38:43;4.57;;;2.20;;
14599;SDS011;7386;45.586;12.854;2022-12-11T05:41:14;4.57;;;2.40;;
14599;SDS011;7386;45.586;12.854;2022-12-11T05:43:43;4.90;;;2.30;;
14599;SDS011;7386;45.586;12.854;2022-12-11T05:46:12;4.33;;;2.10;;
14599;SDS011;7386;45.586;12.854;2022-12-11T05:48:42;11.77;;;2.53;;
14599;SDS011;7386;45.586;12.854;2022-12-11T05:51:11;6.77;;;2.43;;
14599;SDS011;7386;45.586;12.854;2022-12-11T05:53:40;3.97;;;2.80;;
14599;SDS011;7386;45.586;12.854;2022-12-11T05:56:10;5.87;;;3.27;;
14599;SDS011;7386;45.586;12.854;2022-12-11T05:58:40;8.03;;;3.80;;
14599;SDS011;7386;45.586;12.854;2022-12-11T06:01:10;4.33;;;3.50;;
14599;SDS011;7386;45.586;12.854;2022-12-11T06:03:38;3.20;;;2.90;;
14599;SDS011;7386;45.586;12.854;2022-12-11T06:06:07;3.77;;;2.50;;
14599;SDS011;7386;45.586;12.854;2022-12-11T06:08:35;3.83;;;2.43;;
14599;SDS011;7386;45.586;12.854;2022-12-11T06:11:04;2.23;;;2.00;;
14599;SDS011;7386;45.586;12.854;2022-12-11T06:13:33;2.70;;;2.20;;
14599;SDS011;7386;45.586;12.854;2022-12-11T06:16:04;3.40;;;2.30;;
14599;SDS011;7386;45.586;12.854;2022-12-11T06:18:34;2.03;;;1.90;;
14599;SDS011;7386;45.586;12.854;2022-12-11T06:21:09;2.50;;;2.30;;
14599;SDS011;7386;45.586;12.854;2022-12-11T06:23:38;2.90;;;2.50;;
14599;SDS011;7386;45.586;12.854;2022-12-11T06:26:07;3.33;;;3.00;;
14599;SDS011;7386;45.586;12.854;2022-12-11T06:28:35;3.40;;;3.10;;
14599;SDS011;7386;45.586;12.854;2022-12-11T06:31:05;4.83;;;4.27;;
14599;SDS011;7386;45.586;12.854;2022-12-11T06:33:34;5.57;;;4.53;;
14599;SDS011;7386;45.586;12.854;2022-12-11T06:36:03;5.30;;;4.00;;
14599;SDS011;7386;45.586;12.854;2022-12-11T06:38:31;5.00;;;4.30;;
14599;SDS011;7386;45.586;12.854;2022-12-11T06:41:01;6.13;;;5.27;;
14599;SDS011;7386;45.586;12.854;2022-12-11T06:43:30;6.33;;;5.00;;
14599;SDS011;7386;45.586;12.854;2022-12-11T06:45:58;8.50;;;6.27;;
14599;SDS011;7386;45.586;12.854;2022-12-11T06:48:31;7.57;;;6.70;;
14599;SDS011;7386;45.586;12.854;2022-12-11T06:51:03;8.33;;;7.20;;
14599;SDS011;7386;45.586;12.854;2022-12-11T06:53:32;7.43;;;6.63;;
14599;SDS011;7386;45.586;12.854;2022-12-11T06:56:00;7.40;;;6.40;;
14599;SDS011;7386;45.586;12.854;2022-12-11T06:58:29;8.90;;;7.77;;
14599;SDS011;7386;45.586;12.854;2022-12-11T07:00:58;13.70;;;7.67;;
14599;SDS011;7386;45.586;12.854;2022-12-11T07:03:27;8.20;;;6.70;;
14599;SDS011;7386;45.586;12.854;2022-12-11T07:05:59;7.67;;;6.43;;
14599;SDS011;7386;45.586;12.854;2022-12-11T07:08:28;8.40;;;6.80;;
14599;SDS011;7386;45.586;12.854;2022-12-11T07:11:01;7.93;;;6.67;;
14599;SDS011;7386;45.586;12.854;2022-12-11T07:13:29;6.93;;;6.23;;
14599;SDS011;7386;45.586;12.854;2022-12-11T07:15:59;6.73;;;5.60;;
14599;SDS011;7386;45.586;12.854;2022-12-11T07:18:27;6.20;;;5.00;;
14599;SDS011;7386;45.586;12.854;2022-12-11T07:20:56;5.47;;;4.57;;
14599;SDS011;7386;45.586;12.854;2022-12-11T07:23:27;5.00;;;4.10;;
14599;SDS011;7386;45.586;12.854;2022-12-11T07:25:55;5.73;;;4.00;;
14599;SDS011;7386;45.586;12.854;2022-12-11T07:28:24;4.00;;;3.57;;
14599;SDS011;7386;45.586;12.854;2022-12-11T07:30:52;4.13;;;3.67;;
14599;SDS011;7386;45.586;12.854;2022-12-11T07:33:21;4.17;;;3.40;;
14599;SDS011;7386;45.586;12.854;2022-12-11T07:35:49;4.00;;;3.40;;
14599;SDS011;7386;45.586;12.854;2022-12-11T07:38:17;3.50;;;3.20;;
14599;SDS011;7386;45.586;12.854;2022-12-11T07:40:47;3.30;;;3.00;;
14599;SDS011;7386;45.586;12.854;2022-12-11T07:43:16;3.43;;;3.13;;
14599;SDS011;7386;45.586;12.854;2022-12-11T07:45:44;3.47;;;2.93;;
14599;SDS011;7386;45.586;12.854;2022-12-11T07:48:13;3.30;;;3.00;;
14599;SDS011;7386;45.586;12.854;2022-12-11T07:50:41;5.47;;;3.30;;
14599;SDS011;7386;45.586;12.854;2022-12-11T07:53:09;3.07;;;2.87;;
14599;SDS011;7386;45.586;12.854;2022-12-11T07:55:38;3.10;;;2.80;;
14599;SDS011;7386;45.586;12.854;2022-12-11T07:58:08;3.30;;;3.00;;
14599;SDS011;7386;45.586;12.854;2022-12-11T08:00:36;3.13;;;2.83;;
14599;SDS011;7386;45.586;12.854;2022-12-11T08:03:05;3.30;;;3.00;;
14599;SDS011;7386;45.586;12.854;2022-12-11T08:05:34;4.13;;;2.90;;
14599;SDS011;7386;45.586;12.854;2022-12-11T08:08:02;4.60;;;3.03;;
14599;SDS011;7386;45.586;12.854;2022-12-11T08:10:31;4.30;;;3.00;;
14599;SDS011;7386;45.586;12.854;2022-12-11T08:12:59;3.63;;;2.80;;
14599;SDS011;7386;45.586;12.854;2022-12-11T08:15:29;3.13;;;2.87;;
14599;SDS011;7386;45.586;12.854;2022-12-11T08:17:57;3.50;;;3.00;;
14599;SDS011;7386;45.586;12.854;2022-12-11T08:20:26;2.93;;;2.73;;
14599;SDS011;7386;45.586;12.854;2022-12-11T08:22:56;2.83;;;2.47;;
14599;SDS011;7386;45.586;12.854;2022-12-11T08:25:24;3.00;;;2.70;;
14599;SDS011;7386;45.586;12.854;2022-12-11T08:27:56;2.90;;;2.60;;
14599;SDS011;7386;45.586;12.854;2022-12-11T08:30:25;3.07;;;2.77;;
14599;SDS011;7386;45.586;12.854;2022-12-11T08:32:55;3.03;;;2.83;;
14599;SDS011;7386;45.586;12.854;2022-12-11T08:35:25;3.33;;;3.03;;
14599;SDS011;7386;45.586;12.854;2022-12-11T08:37:53;3.37;;;2.83;;
14599;SDS011;7386;45.586;12.854;2022-12-11T08:40:22;3.23;;;2.93;;
14599;SDS011;7386;45.586;12.854;2022-12-11T08:42:50;2.80;;;2.60;;
14599;SDS011;7386;45.586;12.854;2022-12-11T08:45:18;2.73;;;2.53;;
14599;SDS011;7386;45.586;12.854;2022-12-11T08:47:47;3.20;;;2.90;;
14599;SDS011;7386;45.586;12.854;2022-12-11T08:50:17;2.90;;;2.70;;
14599;SDS011;7386;45.586;12.854;2022-12-11T08:52:45;2.87;;;2.67;;
14599;SDS011;7386;45.586;12.854;2022-12-11T08:55:14;2.90;;;2.70;;
14599;SDS011;7386;45.586;12.854;2022-12-11T08:57:42;2.77;;;2.57;;
14599;SDS011;7386;45.586;12.854;2022-12-11T09:00:11;3.30;;;3.00;;
14599;SDS011;7386;45.586;12.854;2022-12-11T09:02:40;3.47;;;2.90;;
14599;SDS011;7386;45.586;12.854;2022-12-11T09:05:09;3.20;;;2.90;;
14599;SDS011;7386;45.586;12.854;2022-12-11T09:07:39;3.20;;;2.90;;
14599;SDS011;7386;45.586;12.854;2022-12-11T09:10:08;3.27;;;2.90;;
14599;SDS011;7386;45.586;12.854;2022-12-11T09:12:37;3.40;;;3.10;;
14599;SDS011;7386;45.586;12.854;2022-12-11T09:15:05;4.30;;;3.20;;
14599;SDS011;7386;45.586;12.854;2022-12-11T09:17:34;4.03;;;3.23;;
14599;SDS011;7386;45.586;12.854;2022-12-11T09:20:03;3.97;;;3.40;;
14599;SDS011;7386;45.586;12.854;2022-12-11T09:22:32;3.67;;;3.17;;
14599;SDS011;7386;45.586;12.854;2022-12-11T09:25:02;4.53;;;3.23;;
14599;SDS011;7386;45.586;12.854;2022-12-11T09:27:30;3.90;;;3.50;;
14599;SDS011;7386;45.586;12.854;2022-12-11T09:29:59;3.47;;;3.17;;
14599;SDS011;7386;45.586;12.854;2022-12-11T09:32:27;3.87;;;3.37;;
14599;SDS011;7386;45.586;12.854;2022-12-11T09:34:56;4.43;;;3.70;;
14599;SDS011;7386;45.586;12.854;2022-12-11T09:37:24;3.87;;;3.27;;
14599;SDS011;7386;45.586;12.854;2022-12-11T09:39:53;3.43;;;3.10;;
14599;SDS011;7386;45.586;12.854;2022-12-11T09:42:24;5.67;;;3.70;;
14599;SDS011;7386;45.586;12.854;2022-12-11T09:44:55;4.20;;;3.60;;
14599;SDS011;7386;45.586;12.854;2022-12-11T09:47:26;4.90;;;3.70;;
14599;SDS011;7386;45.586;12.854;2022-12-11T09:49:58;3.90;;;3.50;;
14599;SDS011;7386;45.586;12.854;2022-12-11T09:52:31;4.73;;;3.80;;
14599;SDS011;7386;45.586;12.854;2022-12-11T09:55:00;4.20;;;3.60;;
14599;SDS011;7386;45.586;12.854;2022-12-11T09:57:41;4.63;;;3.47;;
14599;SDS011;7386;45.586;12.854;2022-12-11T10:00:13;4.80;;;3.30;;
14599;SDS011;7386;45.586;12.854;2022-12-11T10:02:52;3.80;;;3.40;;
14599;SDS011;7386;45.586;12.854;2022-12-11T10:05:27;3.80;;;3.17;;
14599;SDS011;7386;45.586;12.854;2022-12-11T10:07:59;4.27;;;3.37;;
14599;SDS011;7386;45.586;12.854;2022-12-11T10:10:33;4.67;;;3.40;;
14599;SDS011;7386;45.586;12.854;2022-12-11T10:13:08;3.60;;;3.30;;
14599;SDS011;7386;45.586;12.854;2022-12-11T10:15:50;4.23;;;3.50;;
14599;SDS011;7386;45.586;12.854;2022-12-11T10:18:20;3.50;;;3.20;;
14599;SDS011;7386;45.586;12.854;2022-12-11T10:20:51;4.33;;;3.37;;
14599;SDS011;7386;45.586;12.854;2022-12-11T10:23:20;3.60;;;3.30;;
14599;SDS011;7386;45.586;12.854;2022-12-11T10:25:50;3.97;;;3.40;;
14599;SDS011;7386;45.586;12.854;2022-12-11T10:28:25;4.43;;;3.70;;
14599;SDS011;7386;45.586;12.854;2022-12-11T10:30:56;4.63;;;3.87;;
14599;SDS011;7386;45.586;12.854;2022-12-11T10:33:28;5.07;;;4.20;;
14599;SDS011;7386;45.586;12.854;2022-12-11T10:35:59;5.00;;;4.00;;
14599;SDS011;7386;45.586;12.854;2022-12-11T10:38:28;5.67;;;4.20;;
14599;SDS011;7386;45.586;12.854;2022-12-11T10:40:57;6.17;;;4.80;;
14599;SDS011;7386;45.586;12.854;2022-12-11T10:43:35;6.53;;;5.10;;
14599;SDS011;7386;45.586;12.854;2022-12-11T10:46:04;8.77;;;4.53;;
14599;SDS011;7386;45.586;12.854;2022-12-11T10:48:33;5.63;;;4.53;;
14599;SDS011;7386;45.586;12.854;2022-12-11T10:51:09;6.37;;;3.77;;
14599;SDS011;7386;45.586;12.854;2022-12-11T10:53:37;5.70;;;4.40;;
14599;SDS011;7386;45.586;12.854;2022-12-11T10:56:08;7.43;;;4.37;;
14599;SDS011;7386;45.586;12.854;2022-12-11T10:58:39;9.57;;;6.30;;
14599;SDS011;7386;45.586;12.854;2022-12-11T11:01:15;6.57;;;5.40;;
14599;SDS011;7386;45.586;12.854;2022-12-11T11:03:51;9.33;;;5.70;;
14599;SDS011;7386;45.586;12.854;2022-12-11T11:06:20;9.10;;;6.23;;
14599;SDS011;7386;45.586;12.854;2022-12-11T11:08:50;10.07;;;7.00;;
14599;SDS011;7386;45.586;12.854;2022-12-11T11:11:23;9.87;;;6.13;;
14599;SDS011;7386;45.586;12.854;2022-12-11T11:14:04;7.37;;;5.23;;
14599;SDS011;7386;45.586;12.854;2022-12-11T11:16:34;7.30;;;4.97;;
14599;SDS011;7386;45.586;12.854;2022-12-11T11:19:04;6.10;;;4.83;;
14599;SDS011;7386;45.586;12.854;2022-12-11T11:21:33;5.93;;;4.80;;
14599;SDS011;7386;45.586;12.854;2022-12-11T11:24:02;4.90;;;3.90;;
14599;SDS011;7386;45.586;12.854;2022-12-11T11:26:31;4.77;;;4.17;;
14599;SDS011;7386;45.586;12.854;2022-12-11T11:29:23;6.70;;;4.77;;
14599;SDS011;7386;45.586;12.854;2022-12-11T11:31:52;5.50;;;4.70;;
14599;SDS011;7386;45.586;12.854;2022-12-11T11:34:21;7.07;;;5.40;;
14599;SDS011;7386;45.586;12.854;2022-12-11T11:36:54;7.00;;;5.33;;
14599;SDS011;7386;45.586;12.854;2022-12-11T11:39:25;5.20;;;4.43;;
14599;SDS011;7386;45.586;12.854;2022-12-11T11:41:56;5.50;;;4.33;;
14599;SDS011;7386;45.586;12.854;2022-12-11T11:44:28;4.13;;;3.53;;
14599;SDS011;7386;45.586;12.854;2022-12-11T11:46:59;4.10;;;3.70;;
14599;SDS011;7386;45.586;12.854;2022-12-11T11:49:31;4.60;;;4.10;;
14599;SDS011;7386;45.586;12.854;2022-12-11T11:52:06;5.53;;;4.07;;
14599;SDS011;7386;45.586;12.854;2022-12-11T11:54:40;6.10;;;4.03;;
14599;SDS011;7386;45.586;12.854;2022-12-11T11:57:11;5.23;;;4.40;;
14599;SDS011;7386;45.586;12.854;2022-12-11T11:59:43;5.60;;;4.43;;
14599;SDS011;7386;45.586;12.854;2022-12-11T12:02:15;5.77;;;4.70;;
14599;SDS011;7386;45.586;12.854;2022-12-11T12:04:46;5.57;;;3.90;;
14599;SDS011;7386;45.586;12.854;2022-12-11T12:07:20;5.07;;;4.17;;
14599;SDS011;7386;45.586;12.854;2022-12-11T12:09:58;5.67;;;4.43;;
14599;SDS011;7386;45.586;12.854;2022-12-11T12:12:38;5.17;;;4.43;;
14599;SDS011;7386;45.586;12.854;2022-12-11T12:15:19;6.30;;;4.93;;
14599;SDS011;7386;45.586;12.854;2022-12-11T12:17:51;6.47;;;4.90;;
14599;SDS011;7386;45.586;12.854;2022-12-11T12:20:27;6.27;;;4.90;;
14599;SDS011;7386;45.586;12.854;2022-12-11T12:23:08;5.90;;;4.50;;
14599;SDS011;7386;45.586;12.854;2022-12-11T12:25:51;4.60;;;3.90;;
14599;SDS011;7386;45.586;12.854;2022-12-11T12:28:28;6.23;;;4.30;;
14599;SDS011;7386;45.586;12.854;2022-12-11T12:31:11;6.40;;;5.03;;
14599;SDS011;7386;45.586;12.854;2022-12-11T12:33:52;6.70;;;4.93;;
14599;SDS011;7386;45.586;12.854;2022-12-11T12:36:30;6.77;;;4.97;;
14599;SDS011;7386;45.586;12.854;2022-12-11T12:39:10;7.00;;;4.60;;
14599;SDS011;7386;45.586;12.854;2022-12-11T12:41:47;5.00;;;4.27;;
14599;SDS011;7386;45.586;12.854;2022-12-11T12:44:33;5.37;;;4.60;;
14599;SDS011;7386;45.586;12.854;2022-12-11T12:47:09;5.53;;;4.47;;
14599;SDS011;7386;45.586;12.854;2022-12-11T12:49:42;5.43;;;4.60;;
14599;SDS011;7386;45.586;12.854;2022-12-11T12:52:13;5.27;;;4.10;;
14599;SDS011;7386;45.586;12.854;2022-12-11T12:54:44;4.70;;;4.20;;
14599;SDS011;7386;45.586;12.854;2022-12-11T12:57:37;4.17;;;3.77;;
14599;SDS011;7386;45.586;12.854;2022-12-11T13:00:06;4.63;;;4.17;;
14599;SDS011;7386;45.586;12.854;2022-12-11T13:02:47;6.43;;;4.40;;
14599;SDS011;7386;45.586;12.854;2022-12-11T13:05:18;5.03;;;4.47;;
14599;SDS011;7386;45.586;12.854;2022-12-11T13:07:49;4.73;;;4.13;;
14599;SDS011;7386;45.586;12.854;2022-12-11T13:10:24;5.57;;;4.50;;
14599;SDS011;7386;45.586;12.854;2022-12-11T13:12:55;5.37;;;4.03;;
14599;SDS011;7386;45.586;12.854;2022-12-11T13:15:28;4.50;;;4.10;;
14599;SDS011;7386;45.586;12.854;2022-12-11T13:18:05;5.57;;;4.43;;
14599;SDS011;7386;45.586;12.854;2022-12-11T13:20:49;4.87;;;4.20;;
14599;SDS011;7386;45.586;12.854;2022-12-11T13:23:19;5.50;;;4.50;;
14599;SDS011;7386;45.586;12.854;2022-12-11T13:25:54;4.97;;;4.20;;
14599;SDS011;7386;45.586;12.854;2022-12-11T13:28:25;5.53;;;4.40;;
14599;SDS011;7386;45.586;12.854;2022-12-11T13:31:00;4.53;;;3.87;;
14599;SDS011;7386;45.586;12.854;2022-12-11T13:33:36;5.00;;;4.17;;
14599;SDS011;7386;45.586;12.854;2022-12-11T13:38:59;4.83;;;4.20;;
14599;SDS011;7386;45.586;12.854;2022-12-11T13:41:31;4.70;;;3.97;;
14599;SDS011;7386;45.586;12.854;2022-12-11T13:44:03;6.37;;;5.03;;
14599;SDS011;7386;45.586;12.854;2022-12-11T13:46:34;5.27;;;4.63;;
14599;SDS011;7386;45.586;12.854;2022-12-11T13:49:06;5.00;;;4.50;;
14599;SDS011;7386;45.586;12.854;2022-12-11T13:51:49;6.00;;;4.60;;
14599;SDS011;7386;45.586;12.854;2022-12-11T13:54:18;5.67;;;4.60;;
14599;SDS011;7386;45.586;12.854;2022-12-11T13:56:53;7.60;;;5.20;;
14599;SDS011;7386;45.586;12.854;2022-12-11T13:59:23;5.00;;;4.40;;
14599;SDS011;7386;45.586;12.854;2022-12-11T14:01:54;8.53;;;5.00;;
14599;SDS011;7386;45.586;12.854;2022-12-11T14:04:27;5.47;;;4.73;;
14599;SDS011;7386;45.586;12.854;2022-12-11T14:06:56;7.27;;;4.73;;
14599;SDS011;7386;45.586;12.854;2022-12-11T14:09:25;4.93;;;3.80;;
14599;SDS011;7386;45.586;12.854;2022-12-11T14:11:54;7.17;;;4.90;;
14599;SDS011;7386;45.586;12.854;2022-12-11T14:14:27;6.33;;;5.20;;
14599;SDS011;7386;45.586;12.854;2022-12-11T14:17:01;9.43;;;4.97;;
14599;SDS011;7386;45.586;12.854;2022-12-11T14:19:30;6.37;;;4.50;;
14599;SDS011;7386;45.586;12.854;2022-12-11T14:22:00;6.10;;;5.07;;
14599;SDS011;7386;45.586;12.854;2022-12-11T14:24:30;8.57;;;5.00;;
14599;SDS011;7386;45.586;12.854;2022-12-11T14:26:59;6.93;;;4.93;;
14599;SDS011;7386;45.586;12.854;2022-12-11T14:29:30;7.17;;;5.57;;
14599;SDS011;7386;45.586;12.854;2022-12-11T14:32:00;7.50;;;5.97;;
14599;SDS011;7386;45.586;12.854;2022-12-11T14:34:32;8.77;;;7.00;;
14599;SDS011;7386;45.586;12.854;2022-12-11T14:37:03;9.07;;;6.40;;
14599;SDS011;7386;45.586;12.854;2022-12-11T14:39:34;7.03;;;5.70;;
14599;SDS011;7386;45.586;12.854;2022-12-11T14:42:06;6.97;;;5.77;;
14599;SDS011;7386;45.586;12.854;2022-12-11T14:44:42;6.60;;;4.80;;
14599;SDS011;7386;45.586;12.854;2022-12-11T14:47:14;5.80;;;5.03;;
14599;SDS011;7386;45.586;12.854;2022-12-11T14:49:47;9.67;;;5.17;;
14599;SDS011;7386;45.586;12.854;2022-12-11T14:52:19;7.57;;;5.70;;
14599;SDS011;7386;45.586;12.854;2022-12-11T14:54:52;6.50;;;5.10;;
14599;SDS011;7386;45.586;12.854;2022-12-11T14:57:26;6.90;;;5.37;;
14599;SDS011;7386;45.586;12.854;2022-12-11T14:59:57;7.07;;;5.20;;
14599;SDS011;7386;45.586;12.854;2022-12-11T15:02:26;6.97;;;5.50;;
14599;SDS011;7386;45.586;12.854;2022-12-11T15:05:00;6.60;;;5.37;;
14599;SDS011;7386;45.586;12.854;2022-12-11T15:07:34;6.90;;;4.93;;
14599;SDS011;7386;45.586;12.854;2022-12-11T15:10:03;7.27;;;5.27;;
14599;SDS011;7386;45.586;12.854;2022-12-11T15:12:32;7.00;;;5.33;;